Byers, Texas
Current Conditions -  °F | °C
As of 1:52 PM on Thursday 30 Oct 2014 (Local Time) from KSPS Reporting Station
Overcast Overcast  
Wind Chill: 75°   Ceiling: 3800
Heat Index: 75°   Visibility: 10mi
Dew Point: 57°   Wind: 7mph
Humidity: 53%   Direction: 290°WNW
Pressure: 30.1"   Gusts: NA
Location:  34.07°N, 98.19°W
Report Text: KSPS 301852Z 29006KT 10SM BKN038 OVC050 24/14 A3010 RMK AO2 SLP187 T02390139
Loading
Personal Weather Stations






























Interactive Weather Map
Tropical Storm Tracking
New forecast layout! Learn more

10-Day Weather Forecast

Advertisements
Track Severe Weather on mobile